Pearl T — 9HA3698 — position and weather

sailwx.info

Track history (hours):
 
Tides and Currents Weather Stations Pressure Air Temp Water Temp Dewpoint Dewpoint Depression Visibility Wind Speed Wind Dir Waves Ship Positions

Pearl T

Last reported at 2018-Apr-18 05:09 UTC. Time now 2018-Apr-20 07:03 UTC.
Position N 36°28' E 014°44'.

Length 99 m; draft 6.5 m.

Type: Ship. MMSI: 229895000.

Date/timePositionNaut miles runAvg speedWind from/ knotsBaromVisibWave heightAir tempDewpointWater temp
2018-Apr-18 05:09N 36°28' E 014°44'110.1
2018-Apr-18 05:00N 36°28' E 014°43'510.2
2018-Apr-18 04:30N 36°27' E 014°36'5 9.7
2018-Apr-18 04:00N 36°28' E 014°30'510.1
2018-Apr-18 03:30N 36°30' E 014°24'5 9.9
2018-Apr-18 03:00N 36°32' E 014°19'510.6
2018-Apr-18 02:30N 36°33' E 014°13'5 8.9
2018-Apr-18 01:59N 36°35' E 014°07'5 9.6
2018-Apr-18 01:30N 36°36' E 014°02'5 9.7
2018-Apr-18 01:00N 36°38' E 013°56'510.0
2018-Apr-18 00:30N 36°39' E 013°50'510.0
2018-Apr-18 00:00N 36°40' E 013°44'5 9.8
2018-Apr-17 23:30N 36°42' E 013°38'5 9.4
2018-Apr-17 23:00N 36°43' E 013°32'6 9.3
2018-Apr-17 22:25N 36°45' E 013°26'4 9.6
2018-Apr-17 22:00N 36°46' E 013°21'910.4
2018-Apr-17 21:06N 36°49' E 013°10'1 5.6
2018-Apr-17 20:59N 36°49' E 013°09'28 9.6
2018-Apr-17 18:04N 36°58' E 012°36'47410.3
2018-Apr-15 20:07N 40°34' E 003°35'3010.0
2018-Apr-15 17:09N 40°51' E 003°02'1 9.6
2018-Apr-15 16:59N 40°52' E 003°00'5 9.7
2018-Apr-15 16:31N 40°54' E 002°55'510.0
2018-Apr-15 16:00N 40°57' E 002°50'510.3
2018-Apr-15 15:30N 40°60' E 002°44'510.4
2018-Apr-15 15:00N 41°03' E 002°38'510.4
2018-Apr-15 14:30N 41°06' E 002°32'710.5
2018-Apr-15 13:50N 41°10' E 002°25'310.1
2018-Apr-15 13:30N 41°12' E 002°21'5 9.8
2018-Apr-15 13:01N 41°15' E 002°16'5 9.6
2018-Apr-15 12:30N 41°17' E 002°11'4 7.5
2018-Apr-15 12:01N 41°21' E 002°09'1 0.9
2018-Apr-15 11:20N 41°20' E 002°09'0 0.0
2018-Apr-15 09:20N 41°20' E 002°09'0 0.0
2018-Apr-15 08:56N 41°20' E 002°09'0 0.0
2018-Apr-15 08:26N 41°20' E 002°09'0 0.0
2018-Apr-15 07:56N 41°20' E 002°09'0 0.0
2018-Apr-15 07:26N 41°20' E 002°09'0 0.0
2018-Apr-15 06:56N 41°20' E 002°09'0 0.0
2018-Apr-15 06:26N 41°20' E 002°09'0 0.0
2018-Apr-15 05:59N 41°20' E 002°09'0 0.0
2018-Apr-14 20:44N 41°20' E 002°09'0 0.0
2018-Apr-14 20:29N 41°20' E 002°09'0 0.0
2018-Apr-14 19:59N 41°20' E 002°09'0 0.0
2018-Apr-14 19:29N 41°20' E 002°09'0 0.0
2018-Apr-14 18:59N 41°20' E 002°09'0 0.0
2018-Apr-14 18:26N 41°20' E 002°09'0 0.0
2018-Apr-14 17:59N 41°20' E 002°09'0 0.0
2018-Apr-14 17:29N 41°20' E 002°09'0 0.0
2018-Apr-14 16:59N 41°20' E 002°09'0 0.0
2018-Apr-14 16:29N 41°20' E 002°09'0 0.0
2018-Apr-14 15:59N 41°20' E 002°09'0 0.0
2018-Apr-14 15:29N 41°20' E 002°09'0 0.0
2018-Apr-14 14:59N 41°20' E 002°09'0 0.0
2018-Apr-14 14:29N 41°20' E 002°09'0 0.0
2018-Apr-14 13:59N 41°20' E 002°09'0 0.0
2018-Apr-14 13:29N 41°20' E 002°09'0 0.0
2018-Apr-14 12:59N 41°20' E 002°09'0 0.0
2018-Apr-14 12:29N 41°20' E 002°09'0 0.0
2018-Apr-14 11:59N 41°20' E 002°09'0 0.0
2018-Apr-14 11:29N 41°20' E 002°09'0 0.0
2018-Apr-14 10:59N 41°20' E 002°09'0 0.0
2018-Apr-14 10:29N 41°20' E 002°09'0 0.0
2018-Apr-14 09:59N 41°20' E 002°09'0 0.0
2018-Apr-14 09:29N 41°20' E 002°09'0 0.0
2018-Apr-14 08:59N 41°20' E 002°09'0 0.0
2018-Apr-14 08:29N 41°20' E 002°09'0 0.2
2018-Apr-14 08:01N 41°20' E 002°09'1 2.9
2018-Apr-14 07:30N 41°19' E 002°10'4 8.9
2018-Apr-14 07:00N 41°15' E 002°10'5 9.8
2018-Apr-14 06:31N 41°10' E 002°07'5 9.5
2018-Apr-14 06:01N 41°06' E 002°03'213 9.8
2018-Apr-13 08:08N 37°59' W 000°09'210.0
2018-Apr-13 07:54N 37°57' W 000°10'8 9.9
2018-Apr-13 07:04N 37°50' W 000°16'610.2
2018-Apr-13 06:29N 37°45' W 000°21'510.4
2018-Apr-13 06:00N 37°41' W 000°24'510.3
2018-Apr-13 05:30N 37°37' W 000°28'5 9.1
2018-Apr-13 05:00N 37°33' W 000°31'5 9.6
2018-Apr-13 04:26N 37°29' W 000°36'510.1
2018-Apr-13 03:59N 37°26' W 000°40'5 9.9
2018-Apr-13 03:30N 37°23' W 000°44'510.2
2018-Apr-13 02:59N 37°20' W 000°49'5 9.8
2018-Apr-13 02:30N 37°17' W 000°54'224 6.7
2018-Apr-11 17:13N 35°54' W 005°13'210.0
2018-Apr-11 17:01N 35°56' W 005°15'4 7.0
2018-Apr-11 16:30N 35°54' W 005°19'0 0.5
2018-Apr-11 15:59N 35°54' W 005°19'0 0.0
2018-Apr-11 15:29N 35°54' W 005°19'0 0.0
2018-Apr-11 14:59N 35°54' W 005°19'0 0.0
2018-Apr-11 14:29N 35°54' W 005°19'0 0.0
2018-Apr-11 13:59N 35°54' W 005°19'0 0.0
2018-Apr-11 13:29N 35°54' W 005°19'0 0.0
2018-Apr-11 12:59N 35°54' W 005°19'0 0.0
2018-Apr-11 12:29N 35°54' W 005°19'0 0.0
2018-Apr-11 11:59N 35°54' W 005°19'0 0.0
2018-Apr-11 11:29N 35°54' W 005°19'0 0.0
2018-Apr-11 10:59N 35°54' W 005°19'0 0.0
2018-Apr-11 10:30N 35°54' W 005°19'1 2.2
2018-Apr-11 10:00N 35°55' W 005°19'2 4.8
2018-Apr-11 09:30N 35°57' W 005°18'2 4.6
2018-Apr-11 09:00N 35°55' W 005°17'3 6.5
2018-Apr-11 08:30N 35°52' W 005°15'1 1.2
2018-Apr-11 08:00N 35°52' W 005°15'1 1.5
2018-Apr-11 07:03N 35°52' W 005°13'1 0.4
2018-Apr-11 04:46N 35°52' W 005°14'0 1.7
2018-Apr-11 04:28N 35°52' W 005°15'1 1.4
2018-Apr-11 03:59N 35°52' W 005°16'4 6.4
2018-Apr-11 03:17N 35°54' W 005°10'1 2.2
2018-Apr-11 02:59N 35°53' W 005°11'1 1.6
2018-Apr-11 02:29N 35°52' W 005°11'1 2.1
2018-Apr-11 02:00N 35°53' W 005°13'5 9.4
2018-Apr-11 01:29N 35°57' W 005°14'613.2
2018-Apr-11 01:01N 35°58' W 005°22'  
Track history (hours):
 
Tides and Currents Weather Stations Pressure Air Temp Water Temp Dewpoint Dewpoint Depression Visibility Wind Speed Wind Dir Waves Ship Positions

Pearl T

Last reported at 2018-Apr-18 05:09 UTC. Time now 2018-Apr-20 07:03 UTC.
Position N 36°28' E 014°44'.

Length 99 m; draft 6.5 m.

Type: Ship. MMSI: 229895000.

Date/timePositionNaut miles runAvg speedWind from/ knotsBaromVisibWave heightAir tempDewpointWater temp
2018-Apr-18 05:09N 36°28' E 014°44'110.1
2018-Apr-18 05:00N 36°28' E 014°43'510.2
2018-Apr-18 04:30N 36°27' E 014°36'5 9.7
2018-Apr-18 04:00N 36°28' E 014°30'510.1
2018-Apr-18 03:30N 36°30' E 014°24'5 9.9
2018-Apr-18 03:00N 36°32' E 014°19'510.6
2018-Apr-18 02:30N 36°33' E 014°13'5 8.9
2018-Apr-18 01:59N 36°35' E 014°07'5 9.6
2018-Apr-18 01:30N 36°36' E 014°02'5 9.7
2018-Apr-18 01:00N 36°38' E 013°56'510.0
2018-Apr-18 00:30N 36°39' E 013°50'510.0
2018-Apr-18 00:00N 36°40' E 013°44'5 9.8
2018-Apr-17 23:30N 36°42' E 013°38'5 9.4
2018-Apr-17 23:00N 36°43' E 013°32'6 9.3
2018-Apr-17 22:25N 36°45' E 013°26'4 9.6
2018-Apr-17 22:00N 36°46' E 013°21'910.4
2018-Apr-17 21:06N 36°49' E 013°10'1 5.6
2018-Apr-17 20:59N 36°49' E 013°09'28 9.6
2018-Apr-17 18:04N 36°58' E 012°36'47410.3
2018-Apr-15 20:07N 40°34' E 003°35'3010.0
2018-Apr-15 17:09N 40°51' E 003°02'1 9.6
2018-Apr-15 16:59N 40°52' E 003°00'5 9.7
2018-Apr-15 16:31N 40°54' E 002°55'510.0
2018-Apr-15 16:00N 40°57' E 002°50'510.3
2018-Apr-15 15:30N 40°60' E 002°44'510.4
2018-Apr-15 15:00N 41°03' E 002°38'510.4
2018-Apr-15 14:30N 41°06' E 002°32'710.5
2018-Apr-15 13:50N 41°10' E 002°25'310.1
2018-Apr-15 13:30N 41°12' E 002°21'5 9.8
2018-Apr-15 13:01N 41°15' E 002°16'5 9.6
2018-Apr-15 12:30N 41°17' E 002°11'4 7.5
2018-Apr-15 12:01N 41°21' E 002°09'1 0.9
2018-Apr-15 11:20N 41°20' E 002°09'0 0.0
2018-Apr-15 09:20N 41°20' E 002°09'0 0.0
2018-Apr-15 08:56N 41°20' E 002°09'0 0.0
2018-Apr-15 08:26N 41°20' E 002°09'0 0.0
2018-Apr-15 07:56N 41°20' E 002°09'0 0.0
2018-Apr-15 07:26N 41°20' E 002°09'0 0.0
2018-Apr-15 06:56N 41°20' E 002°09'0 0.0
2018-Apr-15 06:26N 41°20' E 002°09'0 0.0
2018-Apr-15 05:59N 41°20' E 002°09'0 0.0
2018-Apr-14 20:44N 41°20' E 002°09'0 0.0
2018-Apr-14 20:29N 41°20' E 002°09'0 0.0
2018-Apr-14 19:59N 41°20' E 002°09'0 0.0
2018-Apr-14 19:29N 41°20' E 002°09'0 0.0
2018-Apr-14 18:59N 41°20' E 002°09'0 0.0
2018-Apr-14 18:26N 41°20' E 002°09'0 0.0
2018-Apr-14 17:59N 41°20' E 002°09'0 0.0
2018-Apr-14 17:29N 41°20' E 002°09'0 0.0
2018-Apr-14 16:59N 41°20' E 002°09'0 0.0
2018-Apr-14 16:29N 41°20' E 002°09'0 0.0
2018-Apr-14 15:59N 41°20' E 002°09'0 0.0
2018-Apr-14 15:29N 41°20' E 002°09'0 0.0
2018-Apr-14 14:59N 41°20' E 002°09'0 0.0
2018-Apr-14 14:29N 41°20' E 002°09'0 0.0
2018-Apr-14 13:59N 41°20' E 002°09'0 0.0
2018-Apr-14 13:29N 41°20' E 002°09'0 0.0
2018-Apr-14 12:59N 41°20' E 002°09'0 0.0
2018-Apr-14 12:29N 41°20' E 002°09'0 0.0
2018-Apr-14 11:59N 41°20' E 002°09'0 0.0
2018-Apr-14 11:29N 41°20' E 002°09'0 0.0
2018-Apr-14 10:59N 41°20' E 002°09'0 0.0
2018-Apr-14 10:29N 41°20' E 002°09'0 0.0
2018-Apr-14 09:59N 41°20' E 002°09'0 0.0
2018-Apr-14 09:29N 41°20' E 002°09'0 0.0
2018-Apr-14 08:59N 41°20' E 002°09'0 0.0
2018-Apr-14 08:29N 41°20' E 002°09'0 0.2
2018-Apr-14 08:01N 41°20' E 002°09'1 2.9
2018-Apr-14 07:30N 41°19' E 002°10'4 8.9
2018-Apr-14 07:00N 41°15' E 002°10'5 9.8
2018-Apr-14 06:31N 41°10' E 002°07'5 9.5
2018-Apr-14 06:01N 41°06' E 002°03'213 9.8
2018-Apr-13 08:08N 37°59' W 000°09'210.0
2018-Apr-13 07:54N 37°57' W 000°10'8 9.9
2018-Apr-13 07:04N 37°50' W 000°16'610.2
2018-Apr-13 06:29N 37°45' W 000°21'510.4
2018-Apr-13 06:00N 37°41' W 000°24'510.3
2018-Apr-13 05:30N 37°37' W 000°28'5 9.1
2018-Apr-13 05:00N 37°33' W 000°31'5 9.6
2018-Apr-13 04:26N 37°29' W 000°36'510.1
2018-Apr-13 03:59N 37°26' W 000°40'5 9.9
2018-Apr-13 03:30N 37°23' W 000°44'510.2
2018-Apr-13 02:59N 37°20' W 000°49'5 9.8
2018-Apr-13 02:30N 37°17' W 000°54'224 6.7
2018-Apr-11 17:13N 35°54' W 005°13'210.0
2018-Apr-11 17:01N 35°56' W 005°15'4 7.0
2018-Apr-11 16:30N 35°54' W 005°19'0 0.5
2018-Apr-11 15:59N 35°54' W 005°19'0 0.0
2018-Apr-11 15:29N 35°54' W 005°19'0 0.0
2018-Apr-11 14:59N 35°54' W 005°19'0 0.0
2018-Apr-11 14:29N 35°54' W 005°19'0 0.0
2018-Apr-11 13:59N 35°54' W 005°19'0 0.0
2018-Apr-11 13:29N 35°54' W 005°19'0 0.0
2018-Apr-11 12:59N 35°54' W 005°19'0 0.0
2018-Apr-11 12:29N 35°54' W 005°19'0 0.0
2018-Apr-11 11:59N 35°54' W 005°19'0 0.0
2018-Apr-11 11:29N 35°54' W 005°19'0 0.0
2018-Apr-11 10:59N 35°54' W 005°19'0 0.0
2018-Apr-11 10:30N 35°54' W 005°19'1 2.2
2018-Apr-11 10:00N 35°55' W 005°19'2 4.8
2018-Apr-11 09:30N 35°57' W 005°18'2 4.6
2018-Apr-11 09:00N 35°55' W 005°17'3 6.5
2018-Apr-11 08:30N 35°52' W 005°15'1 1.2
2018-Apr-11 08:00N 35°52' W 005°15'1 1.5
2018-Apr-11 07:03N 35°52' W 005°13'1 0.4
2018-Apr-11 04:46N 35°52' W 005°14'0 1.7
2018-Apr-11 04:28N 35°52' W 005°15'1 1.4
2018-Apr-11 03:59N 35°52' W 005°16'4 6.4
2018-Apr-11 03:17N 35°54' W 005°10'1 2.2
2018-Apr-11 02:59N 35°53' W 005°11'1 1.6
2018-Apr-11 02:29N 35°52' W 005°11'1 2.1
2018-Apr-11 02:00N 35°53' W 005°13'5 9.4
2018-Apr-11 01:29N 35°57' W 005°14'613.2
2018-Apr-11 01:01N 35°58' W 005°22'  

Dump ship's entire track history